This is the latest recevied weather packets stored in our database for station/object N0OQA. If no packets are shown the sender has not sent any weather packets the latest 10 day(s).
| Time | Temp. | Humidity | Pressure | Rain* | Wind** | Luminosity | Snow |
|---|---|---|---|---|---|---|---|
| 1777534397 | 2.22° C | 74% | 1020.6 hPa | 0 mm | - | - | - |
| 1777533796 | 2.22° C | 74% | 1020.6 hPa | 0 mm | - | - | - |
| 1777533496 | 2.78° C | 74% | 1020.6 hPa | 0 mm | - | - | - |
| 1777533196 | 2.78° C | 75% | 1020.4 hPa | 0 mm | - | - | - |
| 1777531994 | 2.78° C | 72% | 1020.5 hPa | 0 mm | - | - | - |
| 1777531394 | 3.33° C | 71% | 1020.5 hPa | 0 mm | - | - | - |
| 1777531094 | 3.33° C | 71% | 1020.5 hPa | 0 mm | - | - | - |
| 1777530493 | 3.33° C | 70% | 1020.5 hPa | 0 mm | - | - | - |
| 1777529892 | 3.89° C | 69% | 1020.5 hPa | 0 mm | - | - | - |
| 1777529592 | 3.89° C | 69% | 1020.6 hPa | 0 mm | - | - | - |
| 1777529292 | 3.89° C | 69% | 1020.5 hPa | 0 mm | - | - | - |
| 1777528691 | 3.89° C | 68% | 1020.4 hPa | 0 mm | - | - | - |
| 1777526890 | 4.44° C | 68% | 1020.3 hPa | 0 mm | - | - | - |
| 1777526589 | 4.44° C | 69% | 1020.3 hPa | 0 mm | - | - | - |
| 1777526289 | 4.44° C | 70% | 1020.3 hPa | 0 mm | - | - | - |
| 1777525989 | 4.44° C | 70% | 1020.2 hPa | 0 mm | - | - | - |
| 1777525688 | 4.44° C | 70% | 1020.2 hPa | 0 mm | - | - | - |
| 1777524788 | 4.44° C | 70% | 1020.1 hPa | 0 mm | - | - | - |
| 1777523887 | 3.89° C | 72% | 1020 hPa | 0 mm | - | - | - |
| 1777522685 | 3.89° C | 74% | 1019.9 hPa | 0 mm | - | - | - |
| 1777522385 | 4.44° C | 76% | 1019.8 hPa | 0 mm | - | - | - |
| 1777522085 | 4.44° C | 75% | 1019.9 hPa | 0 mm | - | - | - |
| 1777521785 | 5° C | 72% | 1019.8 hPa | 0 mm | - | - | - |
| 1777519082 | 6.67° C | 60% | 1019.6 hPa | 0 mm | - | - | - |
| 1777517881 | 7.22° C | 56% | 1019.5 hPa | 0 mm | - | - | - |
* Rain since midnight (hover to see other rain measurements)
** Current wind speed in m/s (hover to see current wind gust speed)